createdAt,value
2022-11-21T00:01:20.699Z,46.90
2022-11-21T00:03:48.373Z,50.10
2022-11-21T00:06:16.402Z,45.75
2022-11-21T00:08:44.576Z,50.35
2022-11-21T00:11:12.138Z,50.50
2022-11-21T00:13:40.024Z,43.83
2022-11-21T00:16:10.638Z,41.22
2022-11-21T00:18:38.163Z,41.40
2022-11-21T00:21:07.829Z,48.25
2022-11-21T00:23:35.606Z,45.75
2022-11-21T00:26:07.910Z,48.28
2022-11-21T00:28:36.042Z,45.53
2022-11-21T00:31:04.717Z,48.17
2022-11-21T00:33:34.380Z,46.42
2022-11-21T00:36:09.189Z,42.30
2022-11-21T00:38:37.043Z,44.45
2022-11-21T00:41:04.969Z,41.95
2022-11-21T00:43:32.603Z,42.78
2022-11-21T00:46:02.660Z,45.53
2022-11-21T00:48:31.268Z,48.20
2022-11-21T00:51:00.431Z,41.40
2022-11-21T00:53:28.249Z,41.85
2022-11-21T00:55:55.785Z,44.58
2022-11-21T00:58:23.346Z,45.55
2022-11-21T01:00:50.955Z,42.70
2022-11-21T01:03:18.514Z,46.72
2022-11-21T01:05:45.888Z,44.15
2022-11-21T01:08:13.294Z,47.47
2022-11-21T01:10:40.672Z,47.70
2022-11-21T01:13:08.135Z,43.42
2022-11-21T01:15:35.527Z,41.58
2022-11-21T01:18:03.021Z,40.60
2022-11-21T01:20:30.401Z,39.90
2022-11-21T01:22:57.797Z,39.85
2022-11-21T01:25:25.240Z,39.95
2022-11-21T01:27:52.652Z,38.47
2022-11-21T01:30:20.084Z,41.17
2022-11-21T01:32:50.692Z,42.40
2022-11-21T01:35:18.821Z,43.70
2022-11-21T01:37:50.188Z,42.30
2022-11-21T01:40:17.605Z,42.45
2022-11-21T01:43:02.710Z,52.90
2022-11-21T01:45:59.263Z,46.17
2022-11-21T01:48:36.376Z,51.10
2022-11-21T01:51:13.809Z,46.72
2022-11-21T01:53:44.366Z,49.28
2022-11-21T01:56:12.022Z,43.85
2022-11-21T01:58:43.082Z,42.13
2022-11-21T02:01:10.727Z,43.22
2022-11-21T02:03:41.402Z,42.30
2022-11-21T02:06:10.007Z,40.45
2022-11-21T02:08:38.071Z,42.53
2022-11-21T02:11:29.495Z,41.72
2022-11-21T02:13:57.326Z,29.75
2022-11-21T02:16:25.616Z,46.85
2022-11-21T02:18:53.529Z,41.33
2022-11-21T02:21:39.287Z,41.17
2022-11-21T02:24:30.564Z,34.70
2022-11-21T02:26:59.645Z,36.85
2022-11-21T02:29:27.541Z,35.75
2022-11-21T02:31:54.882Z,37.53
2022-11-21T02:34:22.214Z,37.03
2022-11-21T02:36:49.673Z,42.67
2022-11-21T02:39:25.045Z,43.53
2022-11-21T02:42:30.843Z,44.28
2022-11-21T02:45:09.228Z,38.30
2022-11-21T02:47:38.649Z,37.42
2022-11-21T02:50:16.284Z,38.40
2022-11-21T02:52:43.687Z,38.10
2022-11-21T02:55:15.600Z,40.17
2022-11-21T02:57:43.467Z,37.22
2022-11-21T03:00:11.505Z,33.83
2022-11-21T03:02:39.439Z,37.03
2022-11-21T03:05:08.680Z,38.15
2022-11-21T03:07:36.148Z,38.42
2022-11-21T03:10:04.151Z,40.78
2022-11-21T03:12:31.682Z,41.15
2022-11-21T03:14:59.038Z,40.78
2022-11-21T03:17:26.430Z,46.20
2022-11-21T03:19:53.861Z,48.88
2022-11-21T03:22:21.278Z,49.75
2022-11-21T03:24:48.639Z,46.10
2022-11-21T03:27:16.087Z,46.42
2022-11-21T03:29:43.579Z,40.97
2022-11-21T03:32:11.058Z,47.28
2022-11-21T03:34:38.632Z,45.30
2022-11-21T03:37:05.993Z,42.30
2022-11-21T03:39:33.514Z,38.28
2022-11-21T03:42:00.846Z,42.35
2022-11-21T03:44:29.911Z,41.55
2022-11-21T03:46:57.531Z,33.08
2022-11-21T03:49:24.878Z,31.85
2022-11-21T03:51:52.290Z,31.67
2022-11-21T03:54:19.694Z,38.67
2022-11-21T03:56:47.064Z,43.42
2022-11-21T03:59:14.450Z,39.75
2022-11-21T04:01:42.017Z,41.67
2022-11-21T04:04:09.443Z,43.42
2022-11-21T04:06:36.847Z,46.55
2022-11-21T04:09:04.316Z,41.65
2022-11-21T04:11:31.844Z,40.70
2022-11-21T04:13:59.224Z,33.88
2022-11-21T04:16:26.660Z,32.67
2022-11-21T04:18:54.070Z,37.42
2022-11-21T04:21:21.488Z,38.85
2022-11-21T04:23:48.882Z,42.22
2022-11-21T04:26:16.290Z,44.47
2022-11-21T04:28:43.685Z,43.47
2022-11-21T04:31:11.542Z,42.78
2022-11-21T04:33:39.680Z,44.60
2022-11-21T04:36:08.469Z,43.55
2022-11-21T04:38:36.112Z,45.85
2022-11-21T04:41:03.529Z,41.45
2022-11-21T04:43:30.986Z,40.67
2022-11-21T04:45:58.349Z,37.20
2022-11-21T04:48:25.832Z,37.95
2022-11-21T04:50:53.285Z,38.22
2022-11-21T04:53:20.808Z,42.47
2022-11-21T04:55:48.223Z,42.22
2022-11-21T04:58:15.665Z,37.80
2022-11-21T05:00:43.106Z,45.50
2022-11-21T05:03:10.907Z,41.15
2022-11-21T05:05:38.406Z,34.65
2022-11-21T05:08:05.833Z,36.67
2022-11-21T05:10:53.198Z,35.10
2022-11-21T05:13:23.348Z,31.25
2022-11-21T05:15:57.250Z,37.20
2022-11-21T05:18:24.867Z,33.03
2022-11-21T05:20:52.380Z,26.83
2022-11-21T05:23:20.015Z,30.88
2022-11-21T05:25:47.519Z,32.72
2022-11-21T05:28:15.099Z,25.55
2022-11-21T05:30:43.647Z,24.50
2022-11-21T05:33:11.197Z,25.95
2022-11-21T05:35:43.090Z,24.88
2022-11-21T05:38:11.839Z,26.70
2022-11-21T05:40:39.770Z,26.38
2022-11-21T05:43:25.967Z,29.02
2022-11-21T05:45:53.600Z,23.92
2022-11-21T05:48:21.157Z,24.98
2022-11-21T05:50:52.325Z,25.20
2022-11-21T05:53:20.148Z,29.17
2022-11-21T05:55:47.957Z,25.85
2022-11-21T05:58:15.594Z,23.90
2022-11-21T06:01:09.222Z,26.23
2022-11-21T06:03:39.593Z,23.23
2022-11-21T06:06:08.340Z,24.25
2022-11-21T06:08:38.231Z,24.55
2022-11-21T06:11:07.505Z,26.67
2022-11-21T06:13:34.946Z,25.60
2022-11-21T06:16:08.737Z,21.20
2022-11-21T06:18:38.749Z,28.10
2022-11-21T06:21:07.754Z,24.63
2022-11-21T06:23:36.229Z,27.98
2022-11-21T06:26:05.894Z,26.52
2022-11-21T06:28:36.082Z,25.60
2022-11-21T06:31:08.694Z,28.30
2022-11-21T06:33:36.571Z,28.75
2022-11-21T06:36:05.692Z,21.67
2022-11-21T06:38:33.128Z,28.23
2022-11-21T06:41:27.098Z,28.90
2022-11-21T06:43:54.540Z,45.83
2022-11-21T06:46:21.955Z,31.40
2022-11-21T06:48:49.332Z,26.92
2022-11-21T06:51:19.269Z,24.40
2022-11-21T06:53:48.229Z,26.30
2022-11-21T06:56:15.917Z,22.38
2022-11-21T06:58:43.388Z,19.25
2022-11-21T07:01:11.032Z,20.80
2022-11-21T07:03:38.443Z,25.08
2022-11-21T07:06:06.977Z,27.73
2022-11-21T07:08:36.122Z,22.05
2022-11-21T07:11:24.641Z,26.55
2022-11-21T07:13:53.214Z,21.80
2022-11-21T07:16:20.644Z,31.77
2022-11-21T07:18:48.040Z,27.35
2022-11-21T07:21:15.507Z,24.40
2022-11-21T07:23:42.870Z,27.48
2022-11-21T07:26:10.966Z,38.38
2022-11-21T07:28:38.577Z,30.52
2022-11-21T07:31:12.918Z,30.80
2022-11-21T07:33:43.274Z,34.63
2022-11-21T07:36:11.857Z,42.20
2022-11-21T07:38:40.907Z,46.47
2022-11-21T07:41:08.690Z,43.58
2022-11-21T07:43:36.077Z,44.00
2022-11-21T07:46:03.565Z,39.10
2022-11-21T07:48:30.919Z,34.47
2022-11-21T07:50:58.215Z,40.83
2022-11-21T07:53:25.632Z,49.90
2022-11-21T07:55:53.335Z,39.78
2022-11-21T07:58:20.694Z,42.47
2022-11-21T08:00:48.117Z,47.55
2022-11-21T08:03:15.614Z,48.38
2022-11-21T08:05:44.681Z,43.35
2022-11-21T08:08:13.318Z,46.25
2022-11-21T08:10:43.324Z,41.42
2022-11-21T08:13:11.468Z,53.75
2022-11-21T08:15:39.623Z,47.03
2022-11-21T08:18:11.443Z,48.55
2022-11-21T08:20:39.067Z,47.33
2022-11-21T08:23:07.087Z,46.50
2022-11-21T08:25:36.598Z,44.67
2022-11-21T08:28:04.860Z,44.25
2022-11-21T08:30:33.732Z,46.25
2022-11-21T08:33:01.614Z,51.30
2022-11-21T08:35:29.636Z,46.20
2022-11-21T08:38:01.216Z,54.45
2022-11-21T08:40:30.665Z,49.22
2022-11-21T08:43:06.390Z,49.65
2022-11-21T08:45:35.543Z,51.78
2022-11-21T08:48:03.201Z,55.28
2022-11-21T08:50:31.895Z,48.10
2022-11-21T08:53:01.323Z,52.65
2022-11-21T08:55:29.982Z,53.13
2022-11-21T08:57:57.896Z,54.75
2022-11-21T09:00:27.969Z,54.35
2022-11-21T09:02:55.407Z,55.92
2022-11-21T09:05:22.928Z,56.20
2022-11-21T09:07:57.496Z,60.20
2022-11-21T09:10:26.302Z,58.72
2022-11-21T09:12:53.767Z,60.95
2022-11-21T09:15:39.850Z,54.00
2022-11-21T09:18:08.266Z,54.58
2022-11-21T09:20:41.751Z,55.25
2022-11-21T09:23:13.825Z,53.42
2022-11-21T09:25:41.537Z,56.25
2022-11-21T09:28:10.709Z,59.88
2022-11-21T09:30:38.569Z,54.90
2022-11-21T09:33:08.395Z,57.78
2022-11-21T09:35:37.083Z,56.78
2022-11-21T09:38:04.816Z,61.30
2022-11-21T09:40:34.111Z,54.22
2022-11-21T09:43:23.298Z,51.47
2022-11-21T09:46:18.191Z,53.15
2022-11-21T09:48:52.155Z,65.80
2022-11-21T09:51:22.537Z,55.63
2022-11-21T09:53:56.204Z,61.53
2022-11-21T09:56:23.980Z,56.58
2022-11-21T09:59:28.464Z,68.85
2022-11-21T10:01:56.825Z,69.47
2022-11-21T10:04:24.550Z,69.28
2022-11-21T10:07:04.626Z,72.90
2022-11-21T10:09:50.835Z,71.75
2022-11-21T10:12:37.093Z,74.10
2022-11-21T10:15:23.239Z,76.53
2022-11-21T10:18:31.724Z,80.78
2022-11-21T10:21:02.797Z,81.78
2022-11-21T10:23:30.205Z,85.15
2022-11-21T10:26:12.988Z,83.88
2022-11-21T10:29:00.680Z,89.40
2022-11-21T10:31:35.033Z,91.45
2022-11-21T10:34:08.346Z,97.97
2022-11-21T10:36:39.522Z,95.82
2022-11-21T10:39:17.911Z,94.45
2022-11-21T10:41:54.785Z,81.03
2022-11-21T10:44:50.123Z,78.78
2022-11-21T10:47:30.094Z,78.18
2022-11-21T10:50:09.724Z,80.28
2022-11-21T10:53:23.458Z,84.60
2022-11-21T10:56:02.007Z,90.97
2022-11-21T10:58:53.201Z,74.68
2022-11-21T11:01:34.819Z,71.68
2022-11-21T11:04:43.995Z,83.70
2022-11-21T11:07:27.252Z,68.75
2022-11-21T11:10:27.714Z,71.50
2022-11-21T11:13:44.550Z,66.97
2022-11-21T11:16:11.492Z,66.75
2022-11-21T11:19:00.652Z,62.78
2022-11-21T11:21:45.615Z,64.97
2022-11-21T11:24:12.937Z,74.05
2022-11-21T11:26:49.665Z,73.72
2022-11-21T11:29:19.708Z,70.63
2022-11-21T11:31:58.886Z,74.38
2022-11-21T11:34:38.594Z,76.22
2022-11-21T11:37:37.111Z,75.22
2022-11-21T11:40:24.501Z,89.68
2022-11-21T11:43:32.143Z,74.93
2022-11-21T11:46:38.452Z,109.35
2022-11-21T11:49:21.470Z,93.47
2022-11-21T11:51:55.945Z,89.25
2022-11-21T11:54:29.926Z,77.45
2022-11-21T11:56:59.470Z,72.60
2022-11-21T12:00:03.370Z,85.70
2022-11-21T12:02:58.124Z,91.45
2022-11-21T12:05:27.662Z,99.50
2022-11-21T12:08:40.793Z,89.85
2022-11-21T12:11:32.636Z,83.68
2022-11-21T12:14:40.297Z,77.15
2022-11-21T12:17:10.392Z,83.18
2022-11-21T12:19:39.267Z,82.95
2022-11-21T12:22:11.724Z,86.20
2022-11-21T12:24:43.155Z,88.15
2022-11-21T12:27:33.169Z,85.85
2022-11-21T12:30:21.817Z,82.47
2022-11-21T12:33:08.475Z,88.10
2022-11-21T12:35:50.257Z,87.63
2022-11-21T12:38:47.625Z,84.60
2022-11-21T12:41:38.084Z,82.50
2022-11-21T12:44:32.565Z,88.65
2022-11-21T12:47:03.785Z,83.65
2022-11-21T12:49:59.364Z,86.17
2022-11-21T12:53:08.669Z,85.75
2022-11-21T12:55:40.687Z,86.70
2022-11-21T12:58:08.062Z,90.57
2022-11-21T13:01:01.788Z,89.53
2022-11-21T13:03:47.997Z,88.72
2022-11-21T13:06:25.128Z,95.18
2022-11-21T13:08:55.055Z,88.85
2022-11-21T13:11:55.647Z,93.60
2022-11-21T13:14:53.810Z,88.20
2022-11-21T13:17:46.869Z,90.28
2022-11-21T13:20:23.910Z,93.90
2022-11-21T13:22:55.378Z,87.72
2022-11-21T13:25:31.842Z,86.38
2022-11-21T13:28:14.613Z,88.30
2022-11-21T13:30:49.892Z,89.43
2022-11-21T13:33:35.754Z,82.97
2022-11-21T13:36:06.853Z,82.95
2022-11-21T13:39:12.909Z,82.63
2022-11-21T13:41:58.698Z,84.45
2022-11-21T13:44:32.175Z,84.95
2022-11-21T13:47:04.993Z,84.35
2022-11-21T13:49:47.118Z,88.40
2022-11-21T13:52:40.077Z,86.35
2022-11-21T13:55:26.060Z,89.93
2022-11-21T13:58:17.855Z,87.18
2022-11-21T14:01:22.333Z,97.13
2022-11-21T14:04:07.683Z,85.80
2022-11-21T14:06:44.531Z,96.45
2022-11-21T14:09:27.952Z,93.55
2022-11-21T14:12:04.771Z,89.40
2022-11-21T14:14:39.686Z,92.20
2022-11-21T14:17:15.727Z,98.72
2022-11-21T14:19:43.468Z,97.88
2022-11-21T14:22:45.408Z,93.70
2022-11-21T14:25:20.069Z,87.80
2022-11-21T14:27:51.366Z,90.28
2022-11-21T14:30:45.114Z,85.20
2022-11-21T14:33:22.323Z,93.10
2022-11-21T14:35:58.421Z,92.43
2022-11-21T14:38:28.021Z,90.95
2022-11-21T14:41:26.191Z,95.30
2022-11-21T14:43:59.552Z,92.43
2022-11-21T14:46:47.433Z,105.78
2022-11-21T14:49:18.297Z,106.22
2022-11-21T14:51:48.481Z,106.90
2022-11-21T14:54:29.506Z,102.18
2022-11-21T14:57:07.018Z,104.35
2022-11-21T14:59:40.236Z,104.50
2022-11-21T15:02:16.134Z,100.22
2022-11-21T15:04:44.663Z,104.60
2022-11-21T15:07:28.432Z,96.78
2022-11-21T15:10:33.473Z,110.53
2022-11-21T15:13:13.740Z,88.72
2022-11-21T15:15:44.419Z,101.63
2022-11-21T15:18:27.987Z,109.50
2022-11-21T15:20:59.581Z,91.72
2022-11-21T15:23:43.993Z,99.00
2022-11-21T15:26:33.168Z,110.35
2022-11-21T15:29:01.497Z,113.22
2022-11-21T15:31:28.955Z,109.35
2022-11-21T15:34:34.398Z,115.72
2022-11-21T15:37:25.247Z,114.82
2022-11-21T15:39:53.742Z,126.80
2022-11-21T15:42:32.987Z,117.25
2022-11-21T15:45:02.344Z,120.45
2022-11-21T15:47:29.836Z,130.75
2022-11-21T15:49:57.201Z,116.38
2022-11-21T15:52:24.849Z,127.38
2022-11-21T15:54:52.228Z,117.07
2022-11-21T15:59:53.175Z,113.35
2022-11-21T16:02:20.732Z,140.07
2022-11-21T16:04:48.078Z,130.02
2022-11-21T16:07:15.585Z,114.50
2022-11-21T16:09:44.877Z,121.30
2022-11-21T16:12:12.291Z,126.30
2022-11-21T16:14:39.732Z,130.75
2022-11-21T16:17:07.112Z,127.10
2022-11-21T16:19:34.630Z,118.68
2022-11-21T16:22:02.131Z,122.32
2022-11-21T16:24:29.686Z,116.18
2022-11-21T16:26:57.694Z,125.82
2022-11-21T16:29:25.113Z,118.28
2022-11-21T16:31:53.408Z,117.90
2022-11-21T16:34:21.382Z,118.35
2022-11-21T16:36:48.880Z,111.50
2022-11-21T16:39:29.953Z,108.00
2022-11-21T16:41:57.385Z,108.18
2022-11-21T16:44:29.229Z,103.70
2022-11-21T16:46:56.639Z,93.35
2022-11-21T16:49:25.070Z,96.22
2022-11-21T16:51:52.504Z,94.15
2022-11-21T16:54:19.911Z,86.15
2022-11-21T16:56:47.265Z,77.32
2022-11-21T16:59:14.627Z,75.18
2022-11-21T17:01:42.136Z,76.35
2022-11-21T17:04:15.655Z,72.55
2022-11-21T17:06:45.560Z,66.95
2022-11-21T17:09:12.949Z,74.30
2022-11-21T17:11:40.348Z,63.63
2022-11-21T17:14:13.724Z,64.70
2022-11-21T17:16:41.749Z,63.88
2022-11-21T17:19:12.688Z,61.20
2022-11-21T17:21:40.221Z,59.53
2022-11-21T17:24:07.633Z,54.92
2022-11-21T17:26:37.867Z,56.95
2022-11-21T17:29:05.529Z,55.90
2022-11-21T17:31:33.012Z,50.50
2022-11-21T17:34:01.217Z,54.53
2022-11-21T17:36:30.046Z,55.05
2022-11-21T17:38:57.553Z,52.30
2022-11-21T17:41:25.901Z,47.05
2022-11-21T17:43:55.464Z,49.90
2022-11-21T17:46:23.833Z,50.60
2022-11-21T17:48:55.605Z,49.08
2022-11-21T17:51:29.312Z,40.67
2022-11-21T17:53:57.467Z,45.63
2022-11-21T17:56:27.613Z,50.05
2022-11-21T17:58:55.596Z,45.42
2022-11-21T18:01:23.376Z,52.20
2022-11-21T18:03:57.466Z,47.88
2022-11-21T18:06:26.799Z,43.83
2022-11-21T18:08:56.286Z,50.58
2022-11-21T18:11:24.026Z,45.40
2022-11-21T18:13:51.501Z,43.47
2022-11-21T18:16:24.349Z,42.42
2022-11-21T18:18:51.993Z,44.67
2022-11-21T18:21:24.820Z,52.13
2022-11-21T18:23:53.620Z,43.72
2022-11-21T18:26:22.758Z,43.85
2022-11-21T18:29:07.159Z,45.35
2022-11-21T18:31:39.449Z,46.67
2022-11-21T18:34:06.945Z,42.20
2022-11-21T18:36:34.546Z,37.92
2022-11-21T18:39:08.713Z,42.20
2022-11-21T18:41:39.678Z,44.40
2022-11-21T18:44:07.489Z,47.90
2022-11-21T18:46:37.058Z,40.75
2022-11-21T18:49:07.280Z,45.03
2022-11-21T18:51:36.754Z,43.53
2022-11-21T18:54:08.400Z,42.60
2022-11-21T18:56:37.907Z,40.30
2022-11-21T18:59:06.452Z,43.22
2022-11-21T19:01:36.153Z,39.50
2022-11-21T19:04:04.274Z,42.25
2022-11-21T19:06:31.962Z,42.03
2022-11-21T19:08:59.588Z,39.00
2022-11-21T19:11:29.573Z,46.63
2022-11-21T19:13:58.203Z,37.85
2022-11-21T19:16:27.347Z,42.38
2022-11-21T19:21:43.228Z,40.17
2022-11-21T19:24:14.996Z,40.30
2022-11-21T19:26:42.982Z,43.60
2022-11-21T19:29:11.042Z,39.17
2022-11-21T19:31:44.496Z,39.47
2022-11-21T19:34:14.308Z,40.70
2022-11-21T19:36:42.515Z,40.75
2022-11-21T19:39:10.271Z,44.35
2022-11-21T19:41:37.766Z,48.17
2022-11-21T19:44:05.334Z,45.88
2022-11-21T19:46:35.684Z,50.70
2022-11-21T19:49:04.289Z,43.75
2022-11-21T19:51:37.705Z,47.08
2022-11-21T19:54:06.680Z,43.72
2022-11-21T19:56:34.638Z,45.15
2022-11-21T19:59:02.185Z,47.58
2022-11-21T20:01:31.531Z,43.67
2022-11-21T20:04:01.585Z,42.20
2022-11-21T20:06:35.166Z,46.38
2022-11-21T20:09:24.317Z,46.85
2022-11-21T20:11:52.846Z,44.17
2022-11-21T20:14:22.622Z,45.78
2022-11-21T20:16:52.888Z,46.40
2022-11-21T20:19:22.695Z,45.15
2022-11-21T20:21:50.737Z,44.72
2022-11-21T20:24:18.368Z,46.90
2022-11-21T20:26:46.094Z,41.67
2022-11-21T20:29:14.263Z,47.00
2022-11-21T20:31:41.935Z,42.67
2022-11-21T20:34:12.921Z,44.58
2022-11-21T20:36:41.577Z,44.38
2022-11-21T20:39:18.195Z,47.53
2022-11-21T20:41:47.034Z,52.80
2022-11-21T20:47:09.176Z,42.65
2022-11-21T20:49:36.609Z,46.70
2022-11-21T20:54:51.473Z,44.75
2022-11-21T20:57:18.880Z,44.42
2022-11-21T20:59:46.326Z,49.15
2022-11-21T21:02:14.802Z,43.97
2022-11-21T21:04:42.495Z,43.35
2022-11-21T21:07:10.595Z,44.97
2022-11-21T21:09:38.163Z,44.88
2022-11-21T21:12:05.793Z,42.95
2022-11-21T21:14:33.216Z,45.20
2022-11-21T21:17:00.606Z,47.83
2022-11-21T21:19:28.303Z,47.13
2022-11-21T21:21:55.972Z,45.65
2022-11-21T21:24:23.377Z,49.00
2022-11-21T21:26:50.714Z,51.10
2022-11-21T21:29:20.804Z,47.40
2022-11-21T21:31:51.493Z,48.42
2022-11-21T21:34:20.997Z,50.95
2022-11-21T21:36:48.995Z,50.85
2022-11-21T21:39:16.433Z,47.65
2022-11-21T21:41:45.813Z,52.03
2022-11-21T21:44:14.001Z,46.65
2022-11-21T21:46:41.697Z,38.42
2022-11-21T21:49:09.079Z,44.10
2022-11-21T21:51:37.512Z,39.95
2022-11-21T21:54:05.408Z,38.20
2022-11-21T21:56:33.688Z,45.45
2022-11-21T21:59:01.079Z,62.72
2022-11-21T22:01:30.708Z,75.78
2022-11-21T22:04:00.506Z,79.45
2022-11-21T22:06:29.041Z,85.13
2022-11-21T22:08:56.699Z,82.35
2022-11-21T22:11:26.607Z,80.95
2022-11-21T22:13:56.678Z,84.72
2022-11-21T22:16:24.713Z,84.45
2022-11-21T22:18:52.271Z,95.32
2022-11-21T22:21:32.819Z,84.63
2022-11-21T22:24:25.019Z,83.53
2022-11-21T22:26:49.875Z,85.13
2022-11-21T22:29:17.342Z,84.55
2022-11-21T22:31:44.795Z,74.07
2022-11-21T22:34:13.805Z,74.82
2022-11-21T22:36:41.732Z,61.30
2022-11-21T22:39:09.445Z,71.95
2022-11-21T22:41:37.097Z,36.80
2022-11-21T22:44:04.750Z,35.17
2022-11-21T22:46:33.619Z,30.63
2022-11-21T22:49:01.070Z,32.65
2022-11-21T22:51:29.548Z,31.55
2022-11-21T22:53:57.701Z,26.65
2022-11-21T22:56:25.921Z,29.92
2022-11-21T22:58:53.963Z,29.52
2022-11-21T23:01:23.898Z,23.83
2022-11-21T23:03:51.844Z,27.17
2022-11-21T23:06:21.858Z,27.98
2022-11-21T23:08:49.650Z,27.40
2022-11-21T23:11:23.073Z,25.65
2022-11-21T23:13:51.296Z,28.55
2022-11-21T23:16:19.642Z,29.30
2022-11-21T23:18:47.219Z,27.23
2022-11-21T23:21:14.763Z,25.80
2022-11-21T23:23:42.187Z,30.83
2022-11-21T23:26:11.290Z,23.10
2022-11-21T23:28:38.854Z,24.83
2022-11-21T23:31:06.166Z,25.45
2022-11-21T23:33:33.567Z,24.92
2022-11-21T23:36:01.044Z,24.75
2022-11-21T23:38:28.537Z,23.13
2022-11-21T23:40:55.905Z,22.55
2022-11-21T23:43:23.291Z,19.80
2022-11-21T23:45:52.488Z,21.80
2022-11-21T23:48:21.166Z,24.25
2022-11-21T23:50:51.293Z,18.85
2022-11-21T23:53:21.830Z,18.95
2022-11-21T23:55:49.390Z,21.73
2022-11-21T23:58:17.106Z,24.67
